sensor_id;sensor_type;location;lat;lon;timestamp;P1;durP1;ratioP1;P2;durP2;ratioP2
12356;SDS011;6243;51.244;6.774;2023-01-19T00:00:51;11.27;;;8.50;;
12356;SDS011;6243;51.244;6.774;2023-01-19T00:03:17;11.63;;;8.03;;
12356;SDS011;6243;51.244;6.774;2023-01-19T00:05:43;11.80;;;8.27;;
12356;SDS011;6243;51.244;6.774;2023-01-19T00:08:10;13.77;;;7.97;;
12356;SDS011;6243;51.244;6.774;2023-01-19T00:10:36;10.33;;;8.70;;
12356;SDS011;6243;51.244;6.774;2023-01-19T00:13:01;13.33;;;9.07;;
12356;SDS011;6243;51.244;6.774;2023-01-19T00:15:27;10.63;;;8.07;;
12356;SDS011;6243;51.244;6.774;2023-01-19T00:17:52;11.00;;;8.63;;
12356;SDS011;6243;51.244;6.774;2023-01-19T00:20:17;11.67;;;8.27;;
12356;SDS011;6243;51.244;6.774;2023-01-19T00:22:43;14.00;;;8.70;;
12356;SDS011;6243;51.244;6.774;2023-01-19T00:25:10;12.20;;;9.13;;
12356;SDS011;6243;51.244;6.774;2023-01-19T00:27:35;12.77;;;8.40;;
12356;SDS011;6243;51.244;6.774;2023-01-19T00:30:01;10.37;;;8.73;;
12356;SDS011;6243;51.244;6.774;2023-01-19T00:32:26;12.87;;;8.00;;
12356;SDS011;6243;51.244;6.774;2023-01-19T00:34:52;11.80;;;8.40;;
12356;SDS011;6243;51.244;6.774;2023-01-19T00:37:17;13.93;;;8.23;;
12356;SDS011;6243;51.244;6.774;2023-01-19T00:39:43;16.07;;;7.90;;
12356;SDS011;6243;51.244;6.774;2023-01-19T00:42:11;10.73;;;7.97;;
12356;SDS011;6243;51.244;6.774;2023-01-19T00:44:37;12.90;;;7.53;;
12356;SDS011;6243;51.244;6.774;2023-01-19T00:47:03;12.87;;;8.77;;
12356;SDS011;6243;51.244;6.774;2023-01-19T00:49:28;13.47;;;8.27;;
12356;SDS011;6243;51.244;6.774;2023-01-19T00:51:54;10.43;;;8.33;;
12356;SDS011;6243;51.244;6.774;2023-01-19T00:54:19;12.57;;;8.30;;
12356;SDS011;6243;51.244;6.774;2023-01-19T00:56:45;9.63;;;7.60;;
12356;SDS011;6243;51.244;6.774;2023-01-19T00:59:12;11.80;;;8.33;;
12356;SDS011;6243;51.244;6.774;2023-01-19T01:01:37;13.70;;;8.60;;
12356;SDS011;6243;51.244;6.774;2023-01-19T01:04:03;12.77;;;8.33;;
12356;SDS011;6243;51.244;6.774;2023-01-19T01:06:29;11.57;;;8.60;;
12356;SDS011;6243;51.244;6.774;2023-01-19T01:08:54;11.23;;;8.50;;
12356;SDS011;6243;51.244;6.774;2023-01-19T01:11:19;11.87;;;8.50;;
12356;SDS011;6243;51.244;6.774;2023-01-19T01:13:45;13.20;;;8.93;;
12356;SDS011;6243;51.244;6.774;2023-01-19T01:16:12;13.40;;;8.97;;
12356;SDS011;6243;51.244;6.774;2023-01-19T01:18:39;11.47;;;8.77;;
12356;SDS011;6243;51.244;6.774;2023-01-19T01:21:05;11.93;;;8.77;;
12356;SDS011;6243;51.244;6.774;2023-01-19T01:23:31;11.33;;;7.60;;
12356;SDS011;6243;51.244;6.774;2023-01-19T01:25:56;11.17;;;8.43;;
12356;SDS011;6243;51.244;6.774;2023-01-19T01:28:22;11.73;;;8.57;;
12356;SDS011;6243;51.244;6.774;2023-01-19T01:30:51;12.63;;;9.53;;
12356;SDS011;6243;51.244;6.774;2023-01-19T01:33:19;13.03;;;9.00;;
12356;SDS011;6243;51.244;6.774;2023-01-19T01:35:44;14.67;;;10.00;;
12356;SDS011;6243;51.244;6.774;2023-01-19T01:38:09;13.00;;;9.43;;
12356;SDS011;6243;51.244;6.774;2023-01-19T01:40:37;11.10;;;8.90;;
12356;SDS011;6243;51.244;6.774;2023-01-19T01:43:03;12.33;;;9.07;;
12356;SDS011;6243;51.244;6.774;2023-01-19T01:45:30;11.43;;;8.70;;
12356;SDS011;6243;51.244;6.774;2023-01-19T01:47:57;10.50;;;7.73;;
12356;SDS011;6243;51.244;6.774;2023-01-19T01:50:29;12.47;;;9.37;;
12356;SDS011;6243;51.244;6.774;2023-01-19T01:53:00;12.53;;;8.10;;
12356;SDS011;6243;51.244;6.774;2023-01-19T01:55:29;10.27;;;8.43;;
12356;SDS011;6243;51.244;6.774;2023-01-19T01:57:57;10.20;;;7.93;;
12356;SDS011;6243;51.244;6.774;2023-01-19T02:00:26;10.83;;;8.27;;
12356;SDS011;6243;51.244;6.774;2023-01-19T02:02:52;11.30;;;8.13;;
12356;SDS011;6243;51.244;6.774;2023-01-19T02:05:19;11.70;;;8.53;;
12356;SDS011;6243;51.244;6.774;2023-01-19T02:07:51;16.93;;;8.23;;
12356;SDS011;6243;51.244;6.774;2023-01-19T02:10:21;10.77;;;8.33;;
12356;SDS011;6243;51.244;6.774;2023-01-19T02:12:46;11.40;;;9.00;;
12356;SDS011;6243;51.244;6.774;2023-01-19T02:15:15;12.13;;;8.57;;
12356;SDS011;6243;51.244;6.774;2023-01-19T02:17:42;11.67;;;8.50;;
12356;SDS011;6243;51.244;6.774;2023-01-19T02:20:09;10.70;;;8.43;;
12356;SDS011;6243;51.244;6.774;2023-01-19T02:22:37;11.80;;;8.33;;
12356;SDS011;6243;51.244;6.774;2023-01-19T02:25:09;9.67;;;7.90;;
12356;SDS011;6243;51.244;6.774;2023-01-19T02:27:35;10.67;;;8.37;;
12356;SDS011;6243;51.244;6.774;2023-01-19T02:30:01;10.30;;;8.50;;
12356;SDS011;6243;51.244;6.774;2023-01-19T02:32:27;12.60;;;8.40;;
12356;SDS011;6243;51.244;6.774;2023-01-19T02:34:53;9.53;;;8.43;;
12356;SDS011;6243;51.244;6.774;2023-01-19T02:37:19;12.63;;;8.80;;
12356;SDS011;6243;51.244;6.774;2023-01-19T02:39:46;13.17;;;8.90;;
12356;SDS011;6243;51.244;6.774;2023-01-19T02:42:17;11.07;;;8.10;;
12356;SDS011;6243;51.244;6.774;2023-01-19T02:44:48;11.40;;;8.43;;
12356;SDS011;6243;51.244;6.774;2023-01-19T02:47:16;10.47;;;7.47;;
12356;SDS011;6243;51.244;6.774;2023-01-19T02:49:42;12.60;;;8.30;;
12356;SDS011;6243;51.244;6.774;2023-01-19T02:52:07;11.50;;;8.30;;
12356;SDS011;6243;51.244;6.774;2023-01-19T02:54:45;11.33;;;8.67;;
12356;SDS011;6243;51.244;6.774;2023-01-19T02:57:28;13.20;;;8.50;;
12356;SDS011;6243;51.244;6.774;2023-01-19T03:00:08;9.63;;;7.70;;
12356;SDS011;6243;51.244;6.774;2023-01-19T03:02:46;11.50;;;7.93;;
12356;SDS011;6243;51.244;6.774;2023-01-19T03:05:29;9.90;;;8.07;;
12356;SDS011;6243;51.244;6.774;2023-01-19T03:08:06;10.20;;;7.10;;
12356;SDS011;6243;51.244;6.774;2023-01-19T03:10:39;10.93;;;8.10;;
12356;SDS011;6243;51.244;6.774;2023-01-19T03:13:15;10.23;;;7.83;;
12356;SDS011;6243;51.244;6.774;2023-01-19T03:15:46;8.90;;;6.90;;
12356;SDS011;6243;51.244;6.774;2023-01-19T03:18:13;12.43;;;7.50;;
12356;SDS011;6243;51.244;6.774;2023-01-19T03:20:43;8.80;;;6.97;;
12356;SDS011;6243;51.244;6.774;2023-01-19T03:23:10;8.30;;;6.80;;
12356;SDS011;6243;51.244;6.774;2023-01-19T03:25:39;9.10;;;6.23;;
12356;SDS011;6243;51.244;6.774;2023-01-19T03:28:08;11.37;;;6.50;;
12356;SDS011;6243;51.244;6.774;2023-01-19T03:30:35;9.47;;;6.67;;
12356;SDS011;6243;51.244;6.774;2023-01-19T03:33:05;8.30;;;6.73;;
12356;SDS011;6243;51.244;6.774;2023-01-19T03:35:35;8.90;;;6.50;;
12356;SDS011;6243;51.244;6.774;2023-01-19T03:38:05;7.87;;;6.80;;
12356;SDS011;6243;51.244;6.774;2023-01-19T03:40:36;10.80;;;6.40;;
12356;SDS011;6243;51.244;6.774;2023-01-19T03:43:23;8.83;;;6.67;;
12356;SDS011;6243;51.244;6.774;2023-01-19T03:45:51;8.30;;;5.93;;
12356;SDS011;6243;51.244;6.774;2023-01-19T03:48:18;10.03;;;6.50;;
12356;SDS011;6243;51.244;6.774;2023-01-19T03:50:44;8.43;;;6.47;;
12356;SDS011;6243;51.244;6.774;2023-01-19T03:53:11;7.97;;;6.10;;
12356;SDS011;6243;51.244;6.774;2023-01-19T03:55:38;9.87;;;6.73;;
12356;SDS011;6243;51.244;6.774;2023-01-19T03:58:05;9.07;;;6.50;;
12356;SDS011;6243;51.244;6.774;2023-01-19T04:00:31;9.03;;;6.93;;
12356;SDS011;6243;51.244;6.774;2023-01-19T04:02:58;10.70;;;7.20;;
12356;SDS011;6243;51.244;6.774;2023-01-19T04:05:24;11.13;;;7.40;;
12356;SDS011;6243;51.244;6.774;2023-01-19T04:07:50;7.50;;;6.57;;
12356;SDS011;6243;51.244;6.774;2023-01-19T04:10:16;10.90;;;6.53;;
12356;SDS011;6243;51.244;6.774;2023-01-19T04:12:42;10.27;;;7.20;;
12356;SDS011;6243;51.244;6.774;2023-01-19T04:15:08;9.53;;;7.03;;
12356;SDS011;6243;51.244;6.774;2023-01-19T04:17:33;10.03;;;7.17;;
12356;SDS011;6243;51.244;6.774;2023-01-19T04:20:00;8.17;;;6.33;;
12356;SDS011;6243;51.244;6.774;2023-01-19T04:22:26;11.63;;;7.23;;
12356;SDS011;6243;51.244;6.774;2023-01-19T04:24:51;12.30;;;7.20;;
12356;SDS011;6243;51.244;6.774;2023-01-19T04:27:17;11.10;;;7.23;;
12356;SDS011;6243;51.244;6.774;2023-01-19T04:29:42;10.30;;;6.47;;
12356;SDS011;6243;51.244;6.774;2023-01-19T04:32:08;13.73;;;7.73;;
12356;SDS011;6243;51.244;6.774;2023-01-19T04:34:33;9.53;;;7.60;;
12356;SDS011;6243;51.244;6.774;2023-01-19T04:37:00;8.63;;;6.83;;
12356;SDS011;6243;51.244;6.774;2023-01-19T04:39:26;10.50;;;7.13;;
12356;SDS011;6243;51.244;6.774;2023-01-19T04:41:51;13.17;;;7.80;;
12356;SDS011;6243;51.244;6.774;2023-01-19T04:44:16;9.70;;;6.63;;
12356;SDS011;6243;51.244;6.774;2023-01-19T04:46:42;12.80;;;7.10;;
12356;SDS011;6243;51.244;6.774;2023-01-19T04:49:08;11.07;;;7.17;;
12356;SDS011;6243;51.244;6.774;2023-01-19T04:51:33;10.07;;;7.03;;
12356;SDS011;6243;51.244;6.774;2023-01-19T04:54:00;13.87;;;8.67;;
12356;SDS011;6243;51.244;6.774;2023-01-19T04:56:26;13.77;;;8.60;;
12356;SDS011;6243;51.244;6.774;2023-01-19T04:58:52;12.03;;;8.50;;
12356;SDS011;6243;51.244;6.774;2023-01-19T05:01:18;10.20;;;7.17;;
12356;SDS011;6243;51.244;6.774;2023-01-19T05:03:43;11.20;;;7.67;;
12356;SDS011;6243;51.244;6.774;2023-01-19T05:06:09;11.53;;;7.90;;
12356;SDS011;6243;51.244;6.774;2023-01-19T05:08:34;12.07;;;8.10;;
12356;SDS011;6243;51.244;6.774;2023-01-19T05:11:01;12.20;;;8.23;;
12356;SDS011;6243;51.244;6.774;2023-01-19T05:13:27;13.00;;;9.00;;
12356;SDS011;6243;51.244;6.774;2023-01-19T05:15:52;13.83;;;8.70;;
12356;SDS011;6243;51.244;6.774;2023-01-19T05:18:17;12.10;;;8.47;;
12356;SDS011;6243;51.244;6.774;2023-01-19T05:20:43;11.97;;;8.80;;
12356;SDS011;6243;51.244;6.774;2023-01-19T05:23:09;13.20;;;8.67;;
12356;SDS011;6243;51.244;6.774;2023-01-19T05:25:34;14.63;;;9.13;;
12356;SDS011;6243;51.244;6.774;2023-01-19T05:28:01;11.90;;;8.83;;
12356;SDS011;6243;51.244;6.774;2023-01-19T05:30:27;12.03;;;8.43;;
12356;SDS011;6243;51.244;6.774;2023-01-19T05:32:52;14.80;;;8.77;;
12356;SDS011;6243;51.244;6.774;2023-01-19T05:35:18;11.97;;;8.97;;
12356;SDS011;6243;51.244;6.774;2023-01-19T05:37:43;12.77;;;9.23;;
12356;SDS011;6243;51.244;6.774;2023-01-19T05:40:10;13.03;;;8.93;;
12356;SDS011;6243;51.244;6.774;2023-01-19T05:42:36;11.53;;;8.00;;
12356;SDS011;6243;51.244;6.774;2023-01-19T05:45:03;13.13;;;8.73;;
12356;SDS011;6243;51.244;6.774;2023-01-19T05:47:29;12.77;;;8.57;;
12356;SDS011;6243;51.244;6.774;2023-01-19T05:49:55;12.63;;;8.60;;
12356;SDS011;6243;51.244;6.774;2023-01-19T05:52:20;10.53;;;7.73;;
12356;SDS011;6243;51.244;6.774;2023-01-19T05:54:46;8.97;;;7.00;;
12356;SDS011;6243;51.244;6.774;2023-01-19T05:57:12;9.40;;;7.37;;
12356;SDS011;6243;51.244;6.774;2023-01-19T05:59:37;8.87;;;7.30;;
12356;SDS011;6243;51.244;6.774;2023-01-19T06:02:04;9.80;;;7.00;;
12356;SDS011;6243;51.244;6.774;2023-01-19T06:04:30;9.93;;;7.10;;
12356;SDS011;6243;51.244;6.774;2023-01-19T06:06:56;10.83;;;7.47;;
12356;SDS011;6243;51.244;6.774;2023-01-19T06:09:21;10.53;;;7.10;;
12356;SDS011;6243;51.244;6.774;2023-01-19T06:11:47;7.87;;;6.73;;
12356;SDS011;6243;51.244;6.774;2023-01-19T06:14:12;9.97;;;6.27;;
12356;SDS011;6243;51.244;6.774;2023-01-19T06:16:38;8.87;;;5.67;;
12356;SDS011;6243;51.244;6.774;2023-01-19T06:19:05;7.27;;;5.43;;
12356;SDS011;6243;51.244;6.774;2023-01-19T06:21:31;6.90;;;4.87;;
12356;SDS011;6243;51.244;6.774;2023-01-19T06:23:56;6.07;;;5.17;;
12356;SDS011;6243;51.244;6.774;2023-01-19T06:26:22;6.83;;;5.43;;
12356;SDS011;6243;51.244;6.774;2023-01-19T06:28:49;6.67;;;5.40;;
12356;SDS011;6243;51.244;6.774;2023-01-19T06:31:15;5.40;;;4.60;;
12356;SDS011;6243;51.244;6.774;2023-01-19T06:33:40;5.63;;;4.63;;
12356;SDS011;6243;51.244;6.774;2023-01-19T06:36:07;5.47;;;4.53;;
12356;SDS011;6243;51.244;6.774;2023-01-19T06:38:33;5.40;;;4.33;;
12356;SDS011;6243;51.244;6.774;2023-01-19T06:40:59;5.00;;;4.00;;
12356;SDS011;6243;51.244;6.774;2023-01-19T06:43:24;5.67;;;4.33;;
12356;SDS011;6243;51.244;6.774;2023-01-19T06:45:50;4.70;;;4.13;;
12356;SDS011;6243;51.244;6.774;2023-01-19T06:48:16;5.60;;;4.63;;
12356;SDS011;6243;51.244;6.774;2023-01-19T06:50:43;5.73;;;4.30;;
12356;SDS011;6243;51.244;6.774;2023-01-19T06:53:10;5.60;;;4.53;;
12356;SDS011;6243;51.244;6.774;2023-01-19T06:55:36;5.93;;;4.00;;
12356;SDS011;6243;51.244;6.774;2023-01-19T06:58:02;5.43;;;4.30;;
12356;SDS011;6243;51.244;6.774;2023-01-19T07:00:27;5.73;;;5.13;;
12356;SDS011;6243;51.244;6.774;2023-01-19T07:02:53;6.17;;;4.93;;
12356;SDS011;6243;51.244;6.774;2023-01-19T07:05:18;5.77;;;5.03;;
12356;SDS011;6243;51.244;6.774;2023-01-19T07:07:44;8.03;;;5.60;;
12356;SDS011;6243;51.244;6.774;2023-01-19T07:10:17;7.17;;;6.00;;
12356;SDS011;6243;51.244;6.774;2023-01-19T07:12:42;6.93;;;5.97;;
12356;SDS011;6243;51.244;6.774;2023-01-19T07:15:09;8.03;;;6.30;;
12356;SDS011;6243;51.244;6.774;2023-01-19T07:17:34;7.40;;;6.60;;
12356;SDS011;6243;51.244;6.774;2023-01-19T07:20:00;7.50;;;5.90;;
12356;SDS011;6243;51.244;6.774;2023-01-19T07:22:25;7.70;;;6.13;;
12356;SDS011;6243;51.244;6.774;2023-01-19T07:24:51;8.17;;;6.20;;
12356;SDS011;6243;51.244;6.774;2023-01-19T07:27:17;7.53;;;6.73;;
12356;SDS011;6243;51.244;6.774;2023-01-19T07:29:43;8.77;;;6.57;;
12356;SDS011;6243;51.244;6.774;2023-01-19T07:32:08;9.53;;;6.70;;
12356;SDS011;6243;51.244;6.774;2023-01-19T07:34:34;9.27;;;7.00;;
12356;SDS011;6243;51.244;6.774;2023-01-19T07:36:59;9.53;;;7.40;;
12356;SDS011;6243;51.244;6.774;2023-01-19T07:39:25;8.83;;;6.93;;
12356;SDS011;6243;51.244;6.774;2023-01-19T07:41:50;8.33;;;6.73;;
12356;SDS011;6243;51.244;6.774;2023-01-19T07:44:17;10.10;;;7.20;;
12356;SDS011;6243;51.244;6.774;2023-01-19T07:46:43;9.70;;;6.93;;
12356;SDS011;6243;51.244;6.774;2023-01-19T07:49:08;8.83;;;6.83;;
12356;SDS011;6243;51.244;6.774;2023-01-19T07:51:34;8.77;;;7.07;;
12356;SDS011;6243;51.244;6.774;2023-01-19T07:53:59;10.13;;;8.17;;
12356;SDS011;6243;51.244;6.774;2023-01-19T07:56:25;10.43;;;7.77;;
12356;SDS011;6243;51.244;6.774;2023-01-19T07:58:50;10.80;;;7.10;;
12356;SDS011;6243;51.244;6.774;2023-01-19T08:01:17;9.27;;;7.47;;
12356;SDS011;6243;51.244;6.774;2023-01-19T08:03:43;10.67;;;7.60;;
12356;SDS011;6243;51.244;6.774;2023-01-19T08:06:09;11.33;;;8.10;;
12356;SDS011;6243;51.244;6.774;2023-01-19T08:08:43;9.03;;;7.57;;
12356;SDS011;6243;51.244;6.774;2023-01-19T08:11:09;10.63;;;6.83;;
12356;SDS011;6243;51.244;6.774;2023-01-19T08:13:34;8.30;;;7.10;;
12356;SDS011;6243;51.244;6.774;2023-01-19T08:16:00;9.13;;;7.73;;
12356;SDS011;6243;51.244;6.774;2023-01-19T08:18:26;9.83;;;7.27;;
12356;SDS011;6243;51.244;6.774;2023-01-19T08:20:52;10.83;;;7.77;;
12356;SDS011;6243;51.244;6.774;2023-01-19T08:23:17;8.73;;;6.53;;
12356;SDS011;6243;51.244;6.774;2023-01-19T08:25:43;9.33;;;7.03;;
12356;SDS011;6243;51.244;6.774;2023-01-19T08:28:09;9.30;;;7.80;;
12356;SDS011;6243;51.244;6.774;2023-01-19T08:30:36;10.40;;;7.23;;
12356;SDS011;6243;51.244;6.774;2023-01-19T08:33:02;9.70;;;7.23;;
12356;SDS011;6243;51.244;6.774;2023-01-19T08:35:29;10.70;;;6.93;;
12356;SDS011;6243;51.244;6.774;2023-01-19T08:37:54;10.43;;;7.57;;
12356;SDS011;6243;51.244;6.774;2023-01-19T08:40:20;10.13;;;7.93;;
12356;SDS011;6243;51.244;6.774;2023-01-19T08:42:46;9.53;;;7.73;;
12356;SDS011;6243;51.244;6.774;2023-01-19T08:45:11;9.40;;;7.80;;
12356;SDS011;6243;51.244;6.774;2023-01-19T08:47:37;11.33;;;8.23;;
12356;SDS011;6243;51.244;6.774;2023-01-19T08:50:03;12.90;;;9.23;;
12356;SDS011;6243;51.244;6.774;2023-01-19T08:52:30;12.20;;;9.40;;
12356;SDS011;6243;51.244;6.774;2023-01-19T08:54:55;13.93;;;9.53;;
12356;SDS011;6243;51.244;6.774;2023-01-19T08:57:21;13.87;;;9.77;;
12356;SDS011;6243;51.244;6.774;2023-01-19T08:59:47;14.63;;;9.43;;
12356;SDS011;6243;51.244;6.774;2023-01-19T09:02:13;12.00;;;9.27;;
12356;SDS011;6243;51.244;6.774;2023-01-19T09:04:38;13.83;;;9.50;;
12356;SDS011;6243;51.244;6.774;2023-01-19T09:07:04;11.17;;;9.00;;
12356;SDS011;6243;51.244;6.774;2023-01-19T09:09:31;15.60;;;10.73;;
12356;SDS011;6243;51.244;6.774;2023-01-19T09:11:56;14.60;;;10.80;;
12356;SDS011;6243;51.244;6.774;2023-01-19T09:14:22;14.67;;;10.27;;
12356;SDS011;6243;51.244;6.774;2023-01-19T09:16:48;13.83;;;10.50;;
12356;SDS011;6243;51.244;6.774;2023-01-19T09:19:14;13.77;;;10.30;;
12356;SDS011;6243;51.244;6.774;2023-01-19T09:21:39;18.70;;;10.90;;
12356;SDS011;6243;51.244;6.774;2023-01-19T09:24:05;15.17;;;10.40;;
12356;SDS011;6243;51.244;6.774;2023-01-19T09:26:33;15.70;;;10.90;;
12356;SDS011;6243;51.244;6.774;2023-01-19T09:28:59;15.73;;;10.70;;
12356;SDS011;6243;51.244;6.774;2023-01-19T09:31:25;17.70;;;12.10;;
12356;SDS011;6243;51.244;6.774;2023-01-19T09:33:51;15.73;;;11.10;;
12356;SDS011;6243;51.244;6.774;2023-01-19T09:36:17;16.47;;;11.67;;
12356;SDS011;6243;51.244;6.774;2023-01-19T09:38:42;16.17;;;11.20;;
12356;SDS011;6243;51.244;6.774;2023-01-19T09:41:11;18.00;;;12.80;;
12356;SDS011;6243;51.244;6.774;2023-01-19T09:43:45;16.70;;;11.67;;
12356;SDS011;6243;51.244;6.774;2023-01-19T09:46:14;16.20;;;12.07;;
12356;SDS011;6243;51.244;6.774;2023-01-19T09:48:44;20.77;;;12.20;;
12356;SDS011;6243;51.244;6.774;2023-01-19T09:51:13;19.27;;;12.37;;
12356;SDS011;6243;51.244;6.774;2023-01-19T09:53:44;18.70;;;11.60;;
12356;SDS011;6243;51.244;6.774;2023-01-19T09:56:16;18.23;;;13.13;;
12356;SDS011;6243;51.244;6.774;2023-01-19T09:58:44;19.83;;;13.00;;
12356;SDS011;6243;51.244;6.774;2023-01-19T10:01:14;20.30;;;12.97;;
12356;SDS011;6243;51.244;6.774;2023-01-19T10:03:51;17.37;;;12.53;;
12356;SDS011;6243;51.244;6.774;2023-01-19T10:06:29;22.63;;;12.63;;
12356;SDS011;6243;51.244;6.774;2023-01-19T10:08:57;20.97;;;13.43;;
12356;SDS011;6243;51.244;6.774;2023-01-19T10:11:33;21.03;;;13.53;;
12356;SDS011;6243;51.244;6.774;2023-01-19T10:14:08;22.20;;;13.20;;
12356;SDS011;6243;51.244;6.774;2023-01-19T10:16:41;24.37;;;14.93;;
12356;SDS011;6243;51.244;6.774;2023-01-19T10:19:16;20.97;;;13.53;;
12356;SDS011;6243;51.244;6.774;2023-01-19T10:21:47;21.33;;;13.63;;
12356;SDS011;6243;51.244;6.774;2023-01-19T10:24:17;19.27;;;13.83;;
12356;SDS011;6243;51.244;6.774;2023-01-19T10:26:49;21.77;;;13.93;;
12356;SDS011;6243;51.244;6.774;2023-01-19T10:29:20;24.37;;;13.23;;
12356;SDS011;6243;51.244;6.774;2023-01-19T10:31:51;23.87;;;13.10;;
12356;SDS011;6243;51.244;6.774;2023-01-19T10:34:22;22.47;;;12.80;;
12356;SDS011;6243;51.244;6.774;2023-01-19T10:36:48;26.37;;;14.20;;
12356;SDS011;6243;51.244;6.774;2023-01-19T10:39:21;19.90;;;13.00;;
12356;SDS011;6243;51.244;6.774;2023-01-19T10:41:48;20.17;;;12.97;;
12356;SDS011;6243;51.244;6.774;2023-01-19T10:44:23;25.00;;;13.93;;
12356;SDS011;6243;51.244;6.774;2023-01-19T10:46:50;21.50;;;13.80;;
12356;SDS011;6243;51.244;6.774;2023-01-19T10:49:25;24.73;;;14.10;;
12356;SDS011;6243;51.244;6.774;2023-01-19T10:51:52;23.13;;;14.20;;
12356;SDS011;6243;51.244;6.774;2023-01-19T10:54:19;22.23;;;13.70;;
12356;SDS011;6243;51.244;6.774;2023-01-19T10:56:49;22.87;;;13.60;;
12356;SDS011;6243;51.244;6.774;2023-01-19T10:59:29;21.67;;;12.57;;
12356;SDS011;6243;51.244;6.774;2023-01-19T11:04:45;25.33;;;14.50;;
12356;SDS011;6243;51.244;6.774;2023-01-19T11:07:13;24.97;;;13.37;;
12356;SDS011;6243;51.244;6.774;2023-01-19T11:09:42;24.90;;;13.37;;
12356;SDS011;6243;51.244;6.774;2023-01-19T11:12:14;22.27;;;13.20;;
12356;SDS011;6243;51.244;6.774;2023-01-19T11:14:43;20.73;;;13.53;;
12356;SDS011;6243;51.244;6.774;2023-01-19T11:17:15;25.17;;;14.57;;
12356;SDS011;6243;51.244;6.774;2023-01-19T11:19:50;20.50;;;13.70;;
12356;SDS011;6243;51.244;6.774;2023-01-19T11:22:19;24.13;;;15.03;;
12356;SDS011;6243;51.244;6.774;2023-01-19T11:24:49;25.17;;;14.13;;
12356;SDS011;6243;51.244;6.774;2023-01-19T11:27:15;20.93;;;13.83;;
12356;SDS011;6243;51.244;6.774;2023-01-19T11:29:45;26.80;;;15.03;;
12356;SDS011;6243;51.244;6.774;2023-01-19T11:32:18;25.73;;;14.60;;
12356;SDS011;6243;51.244;6.774;2023-01-19T11:34:45;28.20;;;14.33;;
12356;SDS011;6243;51.244;6.774;2023-01-19T11:37:25;24.50;;;14.63;;
12356;SDS011;6243;51.244;6.774;2023-01-19T11:39:56;21.30;;;14.30;;
12356;SDS011;6243;51.244;6.774;2023-01-19T11:42:23;28.53;;;14.50;;
12356;SDS011;6243;51.244;6.774;2023-01-19T11:44:54;26.33;;;14.57;;
12356;SDS011;6243;51.244;6.774;2023-01-19T11:47:26;20.90;;;13.43;;
12356;SDS011;6243;51.244;6.774;2023-01-19T11:49:57;26.17;;;14.33;;
12356;SDS011;6243;51.244;6.774;2023-01-19T11:52:26;22.73;;;13.63;;
12356;SDS011;6243;51.244;6.774;2023-01-19T11:54:56;22.47;;;13.67;;
12356;SDS011;6243;51.244;6.774;2023-01-19T11:57:27;22.13;;;13.33;;
12356;SDS011;6243;51.244;6.774;2023-01-19T11:59:54;25.70;;;14.33;;
12356;SDS011;6243;51.244;6.774;2023-01-19T12:02:22;20.93;;;13.40;;
12356;SDS011;6243;51.244;6.774;2023-01-19T12:04:51;20.23;;;13.00;;
12356;SDS011;6243;51.244;6.774;2023-01-19T12:07:21;23.57;;;13.30;;
12356;SDS011;6243;51.244;6.774;2023-01-19T12:09:53;22.30;;;13.13;;
12356;SDS011;6243;51.244;6.774;2023-01-19T12:12:31;23.27;;;13.33;;
12356;SDS011;6243;51.244;6.774;2023-01-19T12:15:02;17.80;;;12.17;;
12356;SDS011;6243;51.244;6.774;2023-01-19T12:17:32;21.47;;;11.77;;
12356;SDS011;6243;51.244;6.774;2023-01-19T12:20:03;19.63;;;12.20;;
12356;SDS011;6243;51.244;6.774;2023-01-19T12:22:39;19.00;;;11.57;;
12356;SDS011;6243;51.244;6.774;2023-01-19T12:25:11;20.63;;;12.80;;
12356;SDS011;6243;51.244;6.774;2023-01-19T12:27:43;22.70;;;12.90;;
12356;SDS011;6243;51.244;6.774;2023-01-19T12:30:16;21.73;;;12.50;;
12356;SDS011;6243;51.244;6.774;2023-01-19T12:32:45;22.23;;;11.73;;
12356;SDS011;6243;51.244;6.774;2023-01-19T12:38:21;20.57;;;12.60;;
12356;SDS011;6243;51.244;6.774;2023-01-19T12:41:17;16.50;;;10.43;;
12356;SDS011;6243;51.244;6.774;2023-01-19T12:43:45;17.53;;;12.10;;
12356;SDS011;6243;51.244;6.774;2023-01-19T12:46:18;18.20;;;11.70;;
12356;SDS011;6243;51.244;6.774;2023-01-19T12:48:51;17.47;;;11.17;;
12356;SDS011;6243;51.244;6.774;2023-01-19T12:51:21;19.93;;;12.03;;
12356;SDS011;6243;51.244;6.774;2023-01-19T12:53:49;17.20;;;11.97;;
12356;SDS011;6243;51.244;6.774;2023-01-19T12:56:17;19.00;;;11.97;;
12356;SDS011;6243;51.244;6.774;2023-01-19T12:58:46;20.40;;;12.23;;
12356;SDS011;6243;51.244;6.774;2023-01-19T13:01:14;22.10;;;12.30;;
12356;SDS011;6243;51.244;6.774;2023-01-19T13:03:43;19.40;;;12.40;;
12356;SDS011;6243;51.244;6.774;2023-01-19T13:06:10;22.20;;;11.77;;
12356;SDS011;6243;51.244;6.774;2023-01-19T13:14:35;20.17;;;12.57;;
12356;SDS011;6243;51.244;6.774;2023-01-19T13:17:22;19.00;;;12.27;;
12356;SDS011;6243;51.244;6.774;2023-01-19T13:25:41;17.63;;;12.03;;
12356;SDS011;6243;51.244;6.774;2023-01-19T13:28:11;17.97;;;11.73;;
12356;SDS011;6243;51.244;6.774;2023-01-19T13:30:43;18.03;;;12.60;;
12356;SDS011;6243;51.244;6.774;2023-01-19T13:33:18;20.40;;;12.40;;
12356;SDS011;6243;51.244;6.774;2023-01-19T13:35:50;18.80;;;12.70;;
12356;SDS011;6243;51.244;6.774;2023-01-19T13:38:18;19.90;;;12.43;;
12356;SDS011;6243;51.244;6.774;2023-01-19T13:40:45;21.13;;;13.33;;
12356;SDS011;6243;51.244;6.774;2023-01-19T13:43:13;18.97;;;13.30;;
12356;SDS011;6243;51.244;6.774;2023-01-19T13:45:44;27.33;;;14.67;;
12356;SDS011;6243;51.244;6.774;2023-01-19T13:48:13;20.30;;;14.20;;
12356;SDS011;6243;51.244;6.774;2023-01-19T13:50:41;19.23;;;13.37;;
12356;SDS011;6243;51.244;6.774;2023-01-19T13:53:14;22.10;;;14.17;;
12356;SDS011;6243;51.244;6.774;2023-01-19T13:55:41;17.73;;;12.47;;
12356;SDS011;6243;51.244;6.774;2023-01-19T13:58:17;19.17;;;12.70;;
12356;SDS011;6243;51.244;6.774;2023-01-19T14:00:44;17.73;;;12.47;;
12356;SDS011;6243;51.244;6.774;2023-01-19T14:03:14;20.33;;;13.03;;
12356;SDS011;6243;51.244;6.774;2023-01-19T14:05:42;19.87;;;12.20;;
12356;SDS011;6243;51.244;6.774;2023-01-19T14:08:11;19.70;;;12.10;;
12356;SDS011;6243;51.244;6.774;2023-01-19T14:10:40;19.17;;;11.63;;
12356;SDS011;6243;51.244;6.774;2023-01-19T14:13:11;17.57;;;11.50;;
12356;SDS011;6243;51.244;6.774;2023-01-19T14:15:39;20.67;;;12.50;;
12356;SDS011;6243;51.244;6.774;2023-01-19T14:18:20;19.83;;;11.30;;
12356;SDS011;6243;51.244;6.774;2023-01-19T14:20:52;19.10;;;12.33;;
12356;SDS011;6243;51.244;6.774;2023-01-19T14:23:35;16.10;;;10.70;;
12356;SDS011;6243;51.244;6.774;2023-01-19T14:26:33;15.47;;;10.60;;
12356;SDS011;6243;51.244;6.774;2023-01-19T14:29:18;16.67;;;10.83;;
12356;SDS011;6243;51.244;6.774;2023-01-19T14:31:48;17.67;;;10.37;;
12356;SDS011;6243;51.244;6.774;2023-01-19T14:34:34;15.67;;;9.83;;
12356;SDS011;6243;51.244;6.774;2023-01-19T14:37:02;15.53;;;9.87;;
12356;SDS011;6243;51.244;6.774;2023-01-19T14:39:30;15.20;;;9.70;;
12356;SDS011;6243;51.244;6.774;2023-01-19T14:42:00;14.23;;;9.47;;
12356;SDS011;6243;51.244;6.774;2023-01-19T14:44:29;14.70;;;9.00;;
12356;SDS011;6243;51.244;6.774;2023-01-19T14:46:57;14.17;;;10.17;;
12356;SDS011;6243;51.244;6.774;2023-01-19T14:49:26;15.67;;;10.17;;
12356;SDS011;6243;51.244;6.774;2023-01-19T14:51:55;16.47;;;10.83;;
12356;SDS011;6243;51.244;6.774;2023-01-19T14:54:23;15.00;;;10.40;;
12356;SDS011;6243;51.244;6.774;2023-01-19T14:56:55;18.63;;;12.73;;
12356;SDS011;6243;51.244;6.774;2023-01-19T14:59:22;16.13;;;11.77;;
12356;SDS011;6243;51.244;6.774;2023-01-19T15:01:48;20.27;;;12.00;;
12356;SDS011;6243;51.244;6.774;2023-01-19T15:04:13;16.33;;;11.37;;
12356;SDS011;6243;51.244;6.774;2023-01-19T15:06:39;18.87;;;11.00;;
12356;SDS011;6243;51.244;6.774;2023-01-19T15:09:07;18.10;;;11.87;;